Etusivu
METAR-TAF:

METAR-TAF

Lentoasemat :

Tajima, Japani

Leveyspiiri: 35-31N, Pituuspiiri: 134-48E, korkeus merenpinnasta: 210 m

Tämänhetkinen sää

Tämä raportti tehtiin 4 tuntia ja 26 minuuttia sitten, kello 09.00 UTC
Tuuli 6 kn etelästä
Lämpötila 16°C
Kosteus 63%
Ilmanpaine 1013 hPa
Näkyvyys 10 km tai enemmän
Muutamia pilviä 3000 ft:n korkeudessa
Hajanaisia pilviä 12000 ft:n korkeudessa
Hajonneita pilviä 15000 ft:n korkeudessa

METAR: RJBT 130900Z 19006KT 9999 FEW030 SCT120 BKN150 16/09 Q1013

Aika: 22:26 (13:26 UTC)


TAF: puuttuu

Säähavainnot ja -ennusteet yli 4000 lentoasemalta (METAR- ja TAF-raportit).

Käytössä olevat sääasemat on merkitty karttaan keltaisilla ja punaisilla pisteillä.

Aseta hiiri pisteen päälle nähdäksesi sääaseman nimen.

Klikkaa sitten nähdäksesi säähavainnot ja -ennusteet.

Kartan vaihtaminen: klikkaa mustalla rastilla varustettuja vihreitä pisteitä, niin voit zoomata sisään; viivalla varustettua vihreää pistettä, niin voit zoomata ulos tai vihreitä nuolia, niin pääset viereisille kartoille.


METAR-TAF: